Darstellungsparameter: Aktuell verwendete Einstellungen:
Skalierung der Graphiken ... ?
xyx+y,   Skalierungsfaktor:      Skalierung: Modus: x, Faktor: 1
Darstellungszeitraum ... ?
Vom - - bis: - -   Zeitraum: 04.10.2016 - 04.10.2016
Min/Max/Avg-Anzeige ... ?
Zeige MMA aktuell
Zeige MMA Monat
Zeige MMA alles
Zeige --A aktuell
Zeige --A Monat
Zeige --A alles
Keine MMA-Anzeige
MMA:
Average (ber die Originaldaten)
MMA-Basis: 04.10.2016 - 04.10.2016
Quicknavigation für Darstellung... ?
Tage:      1T, 2T, 3T, 5T -1T -2T -3T -5T +1T +2T +3T +5T
Wochen: 1W, 2W, 3W -1W -2W -3W +1W +2W +3W
Monate: 1M, 3M, 6M -1M -3M -6M +1M +3M +6M
Jahre:    1J, 3J, 5J, 10J -1J -3J -5J -10J +1J +3J +5J +10J
Nutze für die Darstellung ... ?
Originaldaten oder Mittelwerte auf ...
Stundenbasis Tagesbasis Wochenbasis
Monatsbasis Jahresbasis      Datenbasis: Original-Daten
Darstellen als:
Statistik (Auto) Statistik J:M      Darstellung:
Zur Graphik,    zurück zur Übersicht aller Sensoren.
 
Tabellarische Datenbersicht: ?
 
Sensor: Nr:Datum:Temp:Abs-Feuchte:Windchill:Wind:
Aussen-T/F 1 04-10-2016 00:00:00 10.9 C 9.45 g/m*3 10.9 C 0 km/h
2 04-10-2016 00:05:00 10.8 C 9.39 g/m*3 10.8 C 0 km/h
3 04-10-2016 00:10:00 10.7 C 9.33 g/m*3 10.7 C 0 km/h
4 04-10-2016 00:15:00 10.6 C 9.27 g/m*3 10.6 C 0 km/h
5 04-10-2016 00:20:00 10.5 C 9.21 g/m*3 10.5 C 0 km/h
6 04-10-2016 00:25:00 10.4 C 9.16 g/m*3 10.4 C 0 km/h
7 04-10-2016 00:30:00 10.3 C 9.1 g/m*3 10.3 C 0 km/h
8 04-10-2016 00:35:00 10.3 C 9.1 g/m*3 10.3 C 0 km/h
9 04-10-2016 00:40:00 10.2 C 9.04 g/m*3 10.2 C 0 km/h
10 04-10-2016 00:45:00 10.1 C 8.98 g/m*3 10.1 C 0 km/h
11 04-10-2016 00:50:00 10.1 C 9.08 g/m*3 10.1 C 0 km/h
12 04-10-2016 00:55:00 10.1 C 8.98 g/m*3 10.1 C 0 km/h
13 04-10-2016 01:00:00 10.1 C 9.08 g/m*3 10.1 C 0 km/h
14 04-10-2016 01:05:00 10.1 C 9.08 g/m*3 10.1 C 0 km/h
15 04-10-2016 01:10:00 9.9 C 8.87 g/m*3 9.9 C 0 km/h
16 04-10-2016 01:15:00 9.8 C 8.91 g/m*3 9.8 C 0 km/h
17 04-10-2016 01:20:00 9.8 C 8.91 g/m*3 9.8 C 0 km/h
18 04-10-2016 01:25:00 9.7 C 8.76 g/m*3 9.7 C 0 km/h
19 04-10-2016 01:30:00 9.7 C 8.76 g/m*3 9.7 C 0 km/h
20 04-10-2016 01:35:00 9.7 C 8.85 g/m*3 9.7 C 0 km/h
21 04-10-2016 01:40:00 9.7 C 8.85 g/m*3 9.7 C 0 km/h
22 04-10-2016 01:45:00 9.7 C 8.85 g/m*3 9.7 C 0 km/h
23 04-10-2016 01:50:00 9.8 C 8.91 g/m*3 9.8 C 0 km/h
24 04-10-2016 01:55:00 9.9 C 8.96 g/m*3 9.9 C 0 km/h
25 04-10-2016 02:00:00 9.9 C 8.96 g/m*3 9.9 C 0 km/h
Sensor: Nr:Datum:Temp:Abs-Feuchte:Windchill:Wind:
Aussen-T/F 26 04-10-2016 02:05:00 10 C 9.02 g/m*3 10 C 0 km/h
27 04-10-2016 02:10:00 9.9 C 8.96 g/m*3 9.9 C 0 km/h
28 04-10-2016 02:15:00 9.9 C 8.96 g/m*3 9.9 C 0 km/h
29 04-10-2016 02:20:00 9.9 C 8.96 g/m*3 9.9 C 0 km/h
30 04-10-2016 02:25:00 9.9 C 8.96 g/m*3 9.9 C 0 km/h
31 04-10-2016 02:30:00 9.9 C 8.96 g/m*3 9.9 C 0 km/h
32 04-10-2016 02:35:00 9.9 C 8.96 g/m*3 9.9 C 0 km/h
33 04-10-2016 02:40:00 10 C 9.02 g/m*3 10 C 0 km/h
34 04-10-2016 02:45:00 10.1 C 9.08 g/m*3 10.1 C 0 km/h
35 04-10-2016 02:50:00 10.1 C 9.08 g/m*3 10.1 C 0 km/h
36 04-10-2016 02:55:00 10.2 C 9.14 g/m*3 10.2 C 0 km/h
37 04-10-2016 03:00:00 10.2 C 9.14 g/m*3 10.2 C 0 km/h
38 04-10-2016 03:05:00 10.3 C 9.19 g/m*3 10.3 C 1.6 km/h
39 04-10-2016 03:10:00 10.3 C 9.29 g/m*3 10.3 C 1.6 km/h
40 04-10-2016 03:15:00 10.3 C 9.19 g/m*3 10.3 C 1.6 km/h
41 04-10-2016 03:20:00 10.2 C 9.14 g/m*3 10.2 C 1.6 km/h
42 04-10-2016 03:25:00 10.2 C 9.14 g/m*3 10.2 C 3.2 km/h
43 04-10-2016 03:30:00 10.2 C 9.14 g/m*3 10.2 C 1.6 km/h
44 04-10-2016 03:35:00 10.2 C 9.14 g/m*3 10.2 C 3.2 km/h
45 04-10-2016 03:40:00 10.1 C 9.08 g/m*3 10.1 C 1.6 km/h
46 04-10-2016 03:45:00 10.1 C 9.08 g/m*3 10.1 C 1.6 km/h
47 04-10-2016 03:50:00 10.1 C 9.08 g/m*3 10.1 C 0 km/h
48 04-10-2016 03:55:00 10 C 9.02 g/m*3 10 C 0 km/h
49 04-10-2016 04:00:00 10 C 9.02 g/m*3 10 C 1.6 km/h
50 04-10-2016 04:05:00 9.9 C 8.96 g/m*3 9.9 C 1.6 km/h
Sensor: Nr:Datum:Temp:Abs-Feuchte:Windchill:Wind:
Aussen-T/F 51 04-10-2016 04:10:00 9.9 C 8.96 g/m*3 9.9 C 3.2 km/h
52 04-10-2016 04:15:00 9.8 C 8.91 g/m*3 9.8 C 0 km/h
53 04-10-2016 04:20:00 9.8 C 8.91 g/m*3 9.8 C 0 km/h
54 04-10-2016 04:25:00 9.8 C 8.91 g/m*3 9.8 C 0 km/h
55 04-10-2016 04:30:00 9.8 C 8.91 g/m*3 9.8 C 0 km/h
56 04-10-2016 04:35:00 9.8 C 8.91 g/m*3 9.8 C 3.2 km/h
57 04-10-2016 04:40:00 9.8 C 8.91 g/m*3 9.8 C 1.6 km/h
58 04-10-2016 04:45:00 9.7 C 8.85 g/m*3 9.7 C 1.6 km/h
59 04-10-2016 04:50:00 9.7 C 8.85 g/m*3 9.7 C 1.6 km/h
60 04-10-2016 04:55:00 9.7 C 8.85 g/m*3 9.7 C 0 km/h
61 04-10-2016 05:00:00 9.6 C 8.79 g/m*3 9.6 C 0 km/h
62 04-10-2016 05:05:00 9.6 C 8.79 g/m*3 9.6 C 0 km/h
63 04-10-2016 05:10:00 9.6 C 8.79 g/m*3 9.6 C 0 km/h
64 04-10-2016 05:15:00 9.6 C 8.79 g/m*3 9.6 C 0 km/h
65 04-10-2016 05:20:00 9.6 C 8.79 g/m*3 9.6 C 0 km/h
66 04-10-2016 05:25:00 9.6 C 8.79 g/m*3 9.6 C 0 km/h
67 04-10-2016 05:30:00 9.6 C 8.79 g/m*3 9.6 C 0 km/h
68 04-10-2016 05:35:00 9.6 C 8.79 g/m*3 9.6 C 0 km/h
69 04-10-2016 05:40:00 9.7 C 8.85 g/m*3 9.7 C 0 km/h
70 04-10-2016 05:45:00 9.7 C 8.94 g/m*3 9.7 C 3.2 km/h
71 04-10-2016 05:50:00 9.7 C 8.94 g/m*3 9.7 C 3.2 km/h
72 04-10-2016 05:55:00 9.6 C 8.79 g/m*3 9.6 C 1.6 km/h
73 04-10-2016 06:00:00 9.6 C 8.79 g/m*3 9.6 C 1.6 km/h
74 04-10-2016 06:05:00 9.6 C 8.79 g/m*3 9.6 C 3.2 km/h
75 04-10-2016 06:10:00 9.6 C 8.79 g/m*3 9.6 C 1.6 km/h
Sensor: Nr:Datum:Temp:Abs-Feuchte:Windchill:Wind:
Aussen-T/F 76 04-10-2016 06:15:00 9.5 C 8.74 g/m*3 9.5 C 3.2 km/h
77 04-10-2016 06:20:00 9.4 C 8.77 g/m*3 9.4 C 1.6 km/h
78 04-10-2016 06:25:00 9.4 C 8.77 g/m*3 9.4 C 1.6 km/h
79 04-10-2016 06:30:00 9.4 C 8.77 g/m*3 9.4 C 1.6 km/h
80 04-10-2016 06:35:00 9.4 C 8.77 g/m*3 9.4 C 0 km/h
81 04-10-2016 06:40:00 9.4 C 8.77 g/m*3 9.4 C 1.6 km/h
82 04-10-2016 06:45:00 9.3 C 8.72 g/m*3 9.3 C 1.6 km/h
83 04-10-2016 06:50:00 9.3 C 8.63 g/m*3 9.3 C 0 km/h
84 04-10-2016 06:55:00 9.2 C 8.57 g/m*3 9.2 C 0 km/h
85 04-10-2016 07:00:00 9.2 C 8.57 g/m*3 9.2 C 0 km/h
86 04-10-2016 07:05:00 9.2 C 8.66 g/m*3 9.2 C 0 km/h
87 04-10-2016 07:10:00 9.3 C 8.72 g/m*3 9.3 C 0 km/h
88 04-10-2016 07:15:00 9.3 C 8.72 g/m*3 9.3 C 0 km/h
89 04-10-2016 07:20:00 9.3 C 8.72 g/m*3 9.3 C 0 km/h
90 04-10-2016 07:25:00 9.4 C 8.77 g/m*3 9.4 C 0 km/h
91 04-10-2016 07:30:00 9.4 C 8.77 g/m*3 9.4 C 0 km/h
92 04-10-2016 07:35:00 9.4 C 8.77 g/m*3 9.4 C 0 km/h
93 04-10-2016 07:40:00 9.4 C 8.77 g/m*3 9.4 C 0 km/h
94 04-10-2016 07:45:00 9.4 C 8.77 g/m*3 9.4 C 0 km/h
95 04-10-2016 07:50:00 9.4 C 8.77 g/m*3 9.4 C 0 km/h
96 04-10-2016 07:55:00 9.4 C 8.77 g/m*3 9.4 C 0 km/h
97 04-10-2016 08:00:00 9.5 C 8.83 g/m*3 9.5 C 0 km/h
98 04-10-2016 08:05:00 9.5 C 8.83 g/m*3 9.5 C 0 km/h
99 04-10-2016 08:10:00 9.5 C 8.83 g/m*3 9.5 C 0 km/h
100 04-10-2016 08:15:00 9.5 C 8.83 g/m*3 9.5 C 0 km/h
Sensor: Nr:Datum:Temp:Abs-Feuchte:Windchill:Wind:
Aussen-T/F 101 04-10-2016 08:20:00 9.5 C 8.83 g/m*3 9.5 C 0 km/h
102 04-10-2016 08:25:00 9.6 C 8.89 g/m*3 9.6 C 0 km/h
103 04-10-2016 08:30:00 9.6 C 8.89 g/m*3 9.6 C 0 km/h
104 04-10-2016 08:35:00 9.7 C 8.94 g/m*3 9.7 C 0 km/h
105 04-10-2016 08:40:00 9.7 C 8.94 g/m*3 9.7 C 0 km/h
106 04-10-2016 08:45:00 9.8 C 9 g/m*3 9.8 C 0 km/h
107 04-10-2016 08:50:00 9.8 C 9 g/m*3 9.8 C 0 km/h
108 04-10-2016 08:55:00 9.8 C 9 g/m*3 9.8 C 0 km/h
109 04-10-2016 09:00:00 9.8 C 9 g/m*3 9.8 C 0 km/h
110 04-10-2016 09:05:00 9.8 C 9 g/m*3 9.8 C 0 km/h
111 04-10-2016 09:10:00 9.9 C 9.06 g/m*3 9.9 C 0 km/h
112 04-10-2016 09:15:00 9.9 C 9.06 g/m*3 9.9 C 0 km/h
113 04-10-2016 09:20:00 10 C 9.11 g/m*3 10 C 0 km/h
114 04-10-2016 09:25:00 10.1 C 9.17 g/m*3 10.1 C 0 km/h
115 04-10-2016 09:30:00 10.2 C 9.23 g/m*3 10.2 C 0 km/h
116 04-10-2016 09:35:00 10.3 C 9.29 g/m*3 10.3 C 0 km/h
117 04-10-2016 09:40:00 10.4 C 9.35 g/m*3 10.4 C 0 km/h
118 04-10-2016 09:45:00 10.3 C 9.29 g/m*3 10.3 C 0 km/h
119 04-10-2016 09:50:00 10.4 C 9.35 g/m*3 10.4 C 0 km/h
120 04-10-2016 09:55:00 10.4 C 9.35 g/m*3 10.4 C 1.6 km/h
121 04-10-2016 10:00:00 10.4 C 9.35 g/m*3 10.4 C 0 km/h
122 04-10-2016 10:05:00 10.5 C 9.41 g/m*3 10.5 C 0 km/h
123 04-10-2016 10:10:00 10.7 C 9.53 g/m*3 10.7 C 0 km/h
124 04-10-2016 10:15:00 10.8 C 9.59 g/m*3 10.8 C 0 km/h
125 04-10-2016 10:20:00 10.8 C 9.59 g/m*3 10.8 C 0 km/h
Sensor: Nr:Datum:Temp:Abs-Feuchte:Windchill:Wind:
Aussen-T/F 126 04-10-2016 10:25:00 10.7 C 9.53 g/m*3 10.7 C 0 km/h
127 04-10-2016 10:30:00 10.7 C 9.53 g/m*3 10.7 C 1.6 km/h
128 04-10-2016 10:35:00 10.8 C 9.59 g/m*3 10.8 C 0 km/h
129 04-10-2016 10:40:00 10.8 C 9.59 g/m*3 10.8 C 0 km/h
130 04-10-2016 10:45:00 10.9 C 9.65 g/m*3 10.9 C 0 km/h
131 04-10-2016 10:50:00 10.9 C 9.65 g/m*3 10.9 C 0 km/h
132 04-10-2016 10:55:00 11.1 C 9.77 g/m*3 11.1 C 0 km/h
133 04-10-2016 11:00:00 11.2 C 9.83 g/m*3 11.2 C 0 km/h
134 04-10-2016 11:05:00 11.3 C 9.89 g/m*3 11.3 C 3.2 km/h
135 04-10-2016 11:10:00 11.3 C 9.89 g/m*3 11.3 C 1.6 km/h
136 04-10-2016 11:15:00 11.4 C 9.96 g/m*3 11.4 C 1.6 km/h
137 04-10-2016 11:20:00 11.4 C 9.96 g/m*3 11.4 C 0 km/h
138 04-10-2016 11:25:00 11.5 C 10.02 g/m*3 11.5 C 0 km/h
139 04-10-2016 11:30:00 11.5 C 9.92 g/m*3 11.5 C 0 km/h
140 04-10-2016 11:35:00 11.4 C 9.85 g/m*3 11.4 C 0 km/h
141 04-10-2016 11:40:00 11.6 C 9.98 g/m*3 11.6 C 0 km/h
142 04-10-2016 11:45:00 11.8 C 10.1 g/m*3 11.8 C 0 km/h
143 04-10-2016 11:50:00 11.8 C 10.1 g/m*3 11.8 C 0 km/h
144 04-10-2016 11:55:00 11.9 C 10.17 g/m*3 11.9 C 0 km/h
145 04-10-2016 12:00:00 12 C 10.23 g/m*3 12 C 0 km/h
146 04-10-2016 12:05:00 12.1 C 10.29 g/m*3 12.1 C 0 km/h
147 04-10-2016 12:10:00 12.2 C 10.36 g/m*3 12.2 C 0 km/h
148 04-10-2016 12:15:00 12.3 C 10.42 g/m*3 12.3 C 0 km/h
149 04-10-2016 12:20:00 12.4 C 10.49 g/m*3 12.4 C 0 km/h
150 04-10-2016 12:25:00 12.5 C 10.55 g/m*3 12.5 C 0 km/h
Sensor: Nr:Datum:Temp:Abs-Feuchte:Windchill:Wind:
Aussen-T/F 151 04-10-2016 12:30:00 12.6 C 10.62 g/m*3 12.6 C 0 km/h
152 04-10-2016 12:35:00 12.7 C 10.69 g/m*3 12.7 C 1.6 km/h
153 04-10-2016 12:40:00 12.7 C 10.58 g/m*3 12.7 C 1.6 km/h
154 04-10-2016 12:45:00 12.7 C 10.58 g/m*3 12.7 C 0 km/h
155 04-10-2016 12:50:00 12.8 C 10.64 g/m*3 12.8 C 0 km/h
156 04-10-2016 12:55:00 12.8 C 10.64 g/m*3 12.8 C 0 km/h
157 04-10-2016 13:00:00 12.8 C 10.64 g/m*3 12.8 C 0 km/h
158 04-10-2016 13:05:00 12.9 C 10.71 g/m*3 12.9 C 0 km/h
159 04-10-2016 13:10:00 12.9 C 10.71 g/m*3 12.9 C 0 km/h
160 04-10-2016 13:15:00 13 C 10.77 g/m*3 13 C 1.6 km/h
161 04-10-2016 13:20:00 13 C 10.66 g/m*3 13 C 1.6 km/h
162 04-10-2016 13:25:00 13.1 C 10.73 g/m*3 13.1 C 1.6 km/h
163 04-10-2016 13:30:00 13.2 C 10.79 g/m*3 13.2 C 0 km/h
164 04-10-2016 13:35:00 13.3 C 10.74 g/m*3 13.3 C 0 km/h
165 04-10-2016 13:40:00 13.3 C 10.74 g/m*3 13.3 C 0 km/h
166 04-10-2016 13:45:00 13.4 C 10.81 g/m*3 13.4 C 0 km/h
167 04-10-2016 13:50:00 13.5 C 10.88 g/m*3 13.5 C 0 km/h
168 04-10-2016 13:55:00 13.5 C 10.88 g/m*3 13.5 C 0 km/h
169 04-10-2016 14:00:00 13.5 C 10.88 g/m*3 13.5 C 0 km/h
170 04-10-2016 14:05:00 13.4 C 10.93 g/m*3 13.4 C 0 km/h
171 04-10-2016 14:10:00 13.5 C 10.99 g/m*3 13.5 C 0 km/h
172 04-10-2016 14:15:00 13.6 C 11.06 g/m*3 13.6 C 0 km/h
173 04-10-2016 14:20:00 13.6 C 10.95 g/m*3 13.6 C 1.6 km/h
174 04-10-2016 14:25:00 13.5 C 10.76 g/m*3 13.5 C 0 km/h
175 04-10-2016 14:30:00 13.5 C 10.76 g/m*3 13.5 C 0 km/h
Sensor: Nr:Datum:Temp:Abs-Feuchte:Windchill:Wind:
Aussen-T/F 176 04-10-2016 14:35:00 13.6 C 10.83 g/m*3 13.6 C 1.6 km/h
177 04-10-2016 14:40:00 13.7 C 10.89 g/m*3 13.7 C 0 km/h
178 04-10-2016 14:45:00 13.8 C 10.96 g/m*3 13.8 C 1.6 km/h
179 04-10-2016 14:50:00 13.9 C 10.79 g/m*3 13.9 C 0 km/h
180 04-10-2016 14:55:00 14.1 C 11.04 g/m*3 14.1 C 0 km/h
181 04-10-2016 15:00:00 14.2 C 11.11 g/m*3 14.2 C 0 km/h
182 04-10-2016 15:05:00 14.3 C 11.06 g/m*3 14.3 C 1.6 km/h
183 04-10-2016 15:10:00 14.3 C 11.06 g/m*3 14.3 C 1.6 km/h
184 04-10-2016 15:15:00 14.3 C 10.93 g/m*3 14.3 C 1.6 km/h
185 04-10-2016 15:20:00 14.3 C 11.06 g/m*3 14.3 C 0 km/h
186 04-10-2016 15:25:00 14.3 C 11.18 g/m*3 14.3 C 0 km/h
187 04-10-2016 15:30:00 14.3 C 11.06 g/m*3 14.3 C 0 km/h
188 04-10-2016 15:35:00 14.2 C 10.99 g/m*3 14.2 C 0 km/h
189 04-10-2016 15:40:00 14.1 C 10.92 g/m*3 14.1 C 1.6 km/h
190 04-10-2016 15:45:00 13.9 C 10.55 g/m*3 13.9 C 3.2 km/h
191 04-10-2016 15:50:00 13.9 C 10.43 g/m*3 13.9 C 1.6 km/h
192 04-10-2016 15:55:00 13.8 C 10.37 g/m*3 13.8 C 1.6 km/h
193 04-10-2016 16:00:00 13.8 C 10.37 g/m*3 13.8 C 4.8 km/h
194 04-10-2016 16:05:00 13.9 C 10.43 g/m*3 13.9 C 1.6 km/h
195 04-10-2016 16:10:00 14 C 10.61 g/m*3 14 C 3.2 km/h
196 04-10-2016 16:15:00 14.2 C 10.87 g/m*3 14.2 C 0 km/h
197 04-10-2016 16:20:00 14.3 C 11.06 g/m*3 14.3 C 0 km/h
198 04-10-2016 16:25:00 14.3 C 11.06 g/m*3 14.3 C 0 km/h
199 04-10-2016 16:30:00 14.3 C 11.06 g/m*3 14.3 C 0 km/h
200 04-10-2016 16:35:00 14.2 C 10.87 g/m*3 14.2 C 0 km/h
Sensor: Nr:Datum:Temp:Abs-Feuchte:Windchill:Wind:
Aussen-T/F 201 04-10-2016 16:40:00 13.9 C 10.67 g/m*3 13.9 C 0 km/h
202 04-10-2016 16:45:00 13.7 C 10.42 g/m*3 13.7 C 0 km/h
203 04-10-2016 16:50:00 13.5 C 10.41 g/m*3 13.5 C 0 km/h
204 04-10-2016 16:55:00 13.4 C 10.35 g/m*3 13.4 C 3.2 km/h
205 04-10-2016 17:00:00 13.5 C 10.41 g/m*3 13.5 C 0 km/h
206 04-10-2016 17:05:00 13.6 C 10.47 g/m*3 13.6 C 0 km/h
207 04-10-2016 17:10:00 13.6 C 10.59 g/m*3 13.6 C 1.6 km/h
208 04-10-2016 17:15:00 13.6 C 10.59 g/m*3 13.6 C 0 km/h
209 04-10-2016 17:20:00 13.6 C 10.59 g/m*3 13.6 C 0 km/h
210 04-10-2016 17:25:00 13.5 C 10.53 g/m*3 13.5 C 0 km/h
211 04-10-2016 17:30:00 13.4 C 10.46 g/m*3 13.4 C 0 km/h
212 04-10-2016 17:35:00 13.3 C 10.51 g/m*3 13.3 C 0 km/h
213 04-10-2016 17:40:00 13.3 C 10.51 g/m*3 13.3 C 0 km/h
214 04-10-2016 17:45:00 13.2 C 10.45 g/m*3 13.2 C 0 km/h
215 04-10-2016 17:50:00 13.1 C 10.27 g/m*3 13.1 C 0 km/h
216 04-10-2016 17:55:00 13.1 C 10.38 g/m*3 13.1 C 0 km/h
217 04-10-2016 18:00:00 13.1 C 10.38 g/m*3 13.1 C 0 km/h
218 04-10-2016 18:05:00 13.1 C 10.27 g/m*3 13.1 C 0 km/h
219 04-10-2016 18:10:00 13.2 C 10.33 g/m*3 13.2 C 0 km/h
220 04-10-2016 18:15:00 13.3 C 10.28 g/m*3 13.3 C 0 km/h
221 04-10-2016 18:20:00 13.3 C 10.28 g/m*3 13.3 C 0 km/h
222 04-10-2016 18:25:00 13.3 C 10.17 g/m*3 13.3 C 0 km/h
223 04-10-2016 18:30:00 13.2 C 10.1 g/m*3 13.2 C 0 km/h
224 04-10-2016 18:35:00 13 C 9.98 g/m*3 13 C 0 km/h
225 04-10-2016 18:40:00 12.8 C 9.86 g/m*3 12.8 C 0 km/h
Sensor: Nr:Datum:Temp:Abs-Feuchte:Windchill:Wind:
Aussen-T/F 226 04-10-2016 18:45:00 12.6 C 9.74 g/m*3 12.6 C 0 km/h
227 04-10-2016 18:50:00 12.3 C 9.56 g/m*3 12.3 C 0 km/h
228 04-10-2016 18:55:00 12.2 C 9.5 g/m*3 12.2 C 0 km/h
229 04-10-2016 19:00:00 11.9 C 9.43 g/m*3 11.9 C 0 km/h
230 04-10-2016 19:05:00 11.8 C 9.37 g/m*3 11.8 C 0 km/h
231 04-10-2016 19:10:00 11.6 C 9.25 g/m*3 11.6 C 0 km/h
232 04-10-2016 19:15:00 11.4 C 9.14 g/m*3 11.4 C 0 km/h
233 04-10-2016 19:20:00 11.3 C 9.18 g/m*3 11.3 C 0 km/h
234 04-10-2016 19:25:00 11.3 C 9.18 g/m*3 11.3 C 0 km/h
235 04-10-2016 19:30:00 11.2 C 9.12 g/m*3 11.2 C 0 km/h
236 04-10-2016 19:35:00 11.1 C 9.17 g/m*3 11.1 C 0 km/h
237 04-10-2016 19:40:00 11 C 9.11 g/m*3 11 C 0 km/h
238 04-10-2016 19:45:00 10.9 C 9.05 g/m*3 10.9 C 0 km/h
239 04-10-2016 19:50:00 10.8 C 8.99 g/m*3 10.8 C 0 km/h
240 04-10-2016 19:55:00 10.7 C 8.94 g/m*3 10.7 C 0 km/h
241 04-10-2016 20:00:00 10.6 C 8.88 g/m*3 10.6 C 0 km/h
242 04-10-2016 20:05:00 10.5 C 8.83 g/m*3 10.5 C 0 km/h
243 04-10-2016 20:10:00 10.3 C 8.71 g/m*3 10.3 C 0 km/h
244 04-10-2016 20:15:00 10.3 C 8.71 g/m*3 10.3 C 0 km/h
245 04-10-2016 20:20:00 10.2 C 8.66 g/m*3 10.2 C 0 km/h
246 04-10-2016 20:25:00 10.1 C 8.61 g/m*3 10.1 C 0 km/h
247 04-10-2016 20:30:00 10 C 8.55 g/m*3 10 C 0 km/h
248 04-10-2016 20:35:00 9.9 C 8.5 g/m*3 9.9 C 0 km/h
249 04-10-2016 20:40:00 9.8 C 8.44 g/m*3 9.8 C 0 km/h
250 04-10-2016 20:45:00 9.7 C 8.39 g/m*3 9.7 C 0 km/h
Sensor: Nr:Datum:Temp:Abs-Feuchte:Windchill:Wind:
Aussen-T/F 251 04-10-2016 20:50:00 9.7 C 8.39 g/m*3 9.7 C 0 km/h
252 04-10-2016 20:55:00 9.6 C 8.34 g/m*3 9.6 C 0 km/h
253 04-10-2016 21:00:00 9.6 C 8.34 g/m*3 9.6 C 0 km/h
254 04-10-2016 21:05:00 9.5 C 8.28 g/m*3 9.5 C 0 km/h
255 04-10-2016 21:10:00 9.4 C 8.23 g/m*3 9.4 C 0 km/h
256 04-10-2016 21:15:00 9.3 C 8.18 g/m*3 9.3 C 0 km/h
257 04-10-2016 21:20:00 9.3 C 8.18 g/m*3 9.3 C 0 km/h
258 04-10-2016 21:25:00 9.3 C 8.18 g/m*3 9.3 C 0 km/h
259 04-10-2016 21:30:00 9.3 C 8.18 g/m*3 9.3 C 0 km/h
260 04-10-2016 21:35:00 9.2 C 8.13 g/m*3 9.2 C 0 km/h
261 04-10-2016 21:40:00 9.2 C 8.22 g/m*3 9.2 C 0 km/h
262 04-10-2016 21:45:00 9.1 C 8.16 g/m*3 9.1 C 0 km/h
263 04-10-2016 21:50:00 9.1 C 8.16 g/m*3 9.1 C 0 km/h
264 04-10-2016 21:55:00 9 C 8.11 g/m*3 9 C 0 km/h
265 04-10-2016 22:00:00 8.9 C 8.06 g/m*3 8.9 C 0 km/h
266 04-10-2016 22:05:00 8.9 C 8.06 g/m*3 8.9 C 0 km/h
267 04-10-2016 22:10:00 8.9 C 7.97 g/m*3 8.9 C 0 km/h
268 04-10-2016 22:15:00 8.8 C 7.92 g/m*3 8.8 C 0 km/h
269 04-10-2016 22:20:00 8.8 C 7.92 g/m*3 8.8 C 0 km/h
270 04-10-2016 22:25:00 8.7 C 7.87 g/m*3 8.7 C 0 km/h
271 04-10-2016 22:30:00 8.7 C 7.96 g/m*3 8.7 C 0 km/h
272 04-10-2016 22:35:00 8.7 C 7.96 g/m*3 8.7 C 0 km/h
273 04-10-2016 22:40:00 8.6 C 7.91 g/m*3 8.6 C 0 km/h
274 04-10-2016 22:45:00 8.6 C 7.91 g/m*3 8.6 C 0 km/h
275 04-10-2016 22:50:00 8.5 C 7.85 g/m*3 8.5 C 0 km/h
Sensor: Nr:Datum:Temp:Abs-Feuchte:Windchill:Wind:
Aussen-T/F 276 04-10-2016 22:55:00 8.4 C 7.8 g/m*3 8.4 C 0 km/h
277 04-10-2016 23:00:00 8.3 C 7.75 g/m*3 8.3 C 0 km/h
278 04-10-2016 23:05:00 8.3 C 7.75 g/m*3 8.3 C 0 km/h
279 04-10-2016 23:10:00 8.2 C 7.7 g/m*3 8.2 C 0 km/h
280 04-10-2016 23:15:00 8.1 C 7.66 g/m*3 8.1 C 0 km/h
281 04-10-2016 23:20:00 8 C 7.61 g/m*3 8 C 0 km/h
282 04-10-2016 23:25:00 7.9 C 7.64 g/m*3 7.9 C 0 km/h
283 04-10-2016 23:30:00 7.8 C 7.59 g/m*3 7.8 C 0 km/h
284 04-10-2016 23:35:00 7.7 C 7.54 g/m*3 7.7 C 0 km/h
285 04-10-2016 23:40:00 7.7 C 7.54 g/m*3 7.7 C 0 km/h
286 04-10-2016 23:45:00 7.7 C 7.62 g/m*3 7.7 C 0 km/h
287 04-10-2016 23:50:00 7.7 C 7.62 g/m*3 7.7 C 0 km/h
288 04-10-2016 23:55:00 7.7 C 7.62 g/m*3 7.7 C 0 km/h

Legende:
   Min
   Max


Maximal/Minimal-Werte vom 04.10.2016 - 04.10.2016

Sensor Min Max Avg
Temp
(Aussen-T/F)
7.7 °C
04-10-2016  23:35:00
14.3 °C
04-10-2016  15:05:00
10.9 °C
Abs-Feuchte
(Aussen-T/F)
7.54 g/m*3
04-10-2016  23:35:00
11.18 g/m*3
04-10-2016  15:25:00
9.33 g/m*3
Windchill
(Aussen-T/F)
7.7 C
04-10-2016  23:35:00
14.3 C
04-10-2016  15:05:00
10.86 C

Die Daten stammen von einer Davis Vantage Pro 2 Wetter-Station und werden unter Linux mit der Software wview2wettercgi und aufbereitet. Alle Angaben erfolgen ohne Gewähr für ihre Vollständigkeit oder Richtigkeit.
Kontakt: Rainer Krienke krienke@uni-koblenz.de . Meine Webseiten an der Uni Koblenz oder privat.
Version: $Revision: 0.78 $